sensor_id;sensor_type;location;lat;lon;timestamp;pressure;altitude;pressure_sealevel;temperature;humidity
73974;BME280;62336;-26.094;27.994;2024-01-25T00:01:47;85227.61;;;33.44;20.60
73974;BME280;62336;-26.094;27.994;2024-01-25T00:04:13;85221.52;;;34.76;19.94
73974;BME280;62336;-26.094;27.994;2024-01-25T00:06:38;85217.29;;;34.75;19.77
73974;BME280;62336;-26.094;27.994;2024-01-25T00:09:03;85220.51;;;35.21;19.78
73974;BME280;62336;-26.094;27.994;2024-01-25T00:11:29;85218.61;;;34.99;19.93
73974;BME280;62336;-26.094;27.994;2024-01-25T00:13:54;85216.19;;;35.08;19.91
73974;BME280;62336;-26.094;27.994;2024-01-25T00:16:20;85214.94;;;34.44;20.45
73974;BME280;62336;-26.094;27.994;2024-01-25T00:18:46;85218.56;;;34.29;20.49
73974;BME280;62336;-26.094;27.994;2024-01-25T00:21:12;85220.26;;;33.99;20.76
73974;BME280;62336;-26.094;27.994;2024-01-25T00:23:38;85218.18;;;34.79;20.37
73974;BME280;62336;-26.094;27.994;2024-01-25T00:26:04;85219.12;;;34.46;20.58
73974;BME280;62336;-26.094;27.994;2024-01-25T00:28:28;85221.26;;;34.07;20.91
73974;BME280;62336;-26.094;27.994;2024-01-25T00:30:53;85225.28;;;34.40;20.75
73974;BME280;62336;-26.094;27.994;2024-01-25T00:33:18;85220.64;;;34.57;20.75
73974;BME280;62336;-26.094;27.994;2024-01-25T00:35:45;85214.68;;;34.19;21.04
73974;BME280;62336;-26.094;27.994;2024-01-25T00:38:10;85215.84;;;33.57;21.49
73974;BME280;62336;-26.094;27.994;2024-01-25T00:40:36;85216.93;;;33.86;21.25
73974;BME280;62336;-26.094;27.994;2024-01-25T00:43:01;85218.22;;;33.97;21.21
73974;BME280;62336;-26.094;27.994;2024-01-25T00:45:26;85217.49;;;34.85;20.51
73974;BME280;62336;-26.094;27.994;2024-01-25T00:47:52;85216.15;;;35.04;20.38
73974;BME280;62336;-26.094;27.994;2024-01-25T00:50:17;85212.61;;;34.53;20.78
73974;BME280;62336;-26.094;27.994;2024-01-25T00:52:43;85209.14;;;34.09;21.13
73974;BME280;62336;-26.094;27.994;2024-01-25T00:55:09;85208.44;;;33.89;21.25
73974;BME280;62336;-26.094;27.994;2024-01-25T00:57:34;85210.64;;;33.85;21.33
73974;BME280;62336;-26.094;27.994;2024-01-25T00:59:59;85208.41;;;34.03;21.16
73974;BME280;62336;-26.094;27.994;2024-01-25T01:02:24;85209.06;;;33.41;21.60
73974;BME280;62336;-26.094;27.994;2024-01-25T01:04:50;85205.96;;;32.70;22.10
73974;BME280;62336;-26.094;27.994;2024-01-25T01:07:16;85208.40;;;32.97;21.99
73974;BME280;62336;-26.094;27.994;2024-01-25T01:09:42;85209.80;;;32.85;22.16
73974;BME280;62336;-26.094;27.994;2024-01-25T01:12:06;85211.07;;;33.65;21.50
73974;BME280;62336;-26.094;27.994;2024-01-25T01:14:31;85211.03;;;33.85;21.32
73974;BME280;62336;-26.094;27.994;2024-01-25T01:16:56;85214.76;;;33.82;21.47
73974;BME280;62336;-26.094;27.994;2024-01-25T01:19:21;85215.08;;;33.82;21.33
73974;BME280;62336;-26.094;27.994;2024-01-25T01:21:46;85217.80;;;34.54;20.82
73974;BME280;62336;-26.094;27.994;2024-01-25T01:24:12;85225.59;;;33.57;21.37
73974;BME280;62336;-26.094;27.994;2024-01-25T01:26:38;85223.42;;;33.88;21.24
73974;BME280;62336;-26.094;27.994;2024-01-25T01:29:04;85220.49;;;32.93;22.13
73974;BME280;62336;-26.094;27.994;2024-01-25T01:31:30;85218.00;;;33.14;21.81
73974;BME280;62336;-26.094;27.994;2024-01-25T01:33:54;85215.52;;;32.19;22.50
73974;BME280;62336;-26.094;27.994;2024-01-25T01:36:20;85217.40;;;32.71;22.06
73974;BME280;62336;-26.094;27.994;2024-01-25T01:38:46;85215.77;;;31.91;23.13
73974;BME280;62336;-26.094;27.994;2024-01-25T01:41:10;85214.48;;;32.84;22.05
73974;BME280;62336;-26.094;27.994;2024-01-25T01:43:38;85211.19;;;32.88;22.22
73974;BME280;62336;-26.094;27.994;2024-01-25T01:46:06;85210.52;;;33.01;22.08
73974;BME280;62336;-26.094;27.994;2024-01-25T01:48:27;85210.76;;;33.84;21.55
73974;BME280;62336;-26.094;27.994;2024-01-25T01:50:52;85207.07;;;33.12;21.81
73974;BME280;62336;-26.094;27.994;2024-01-25T01:53:18;85207.54;;;33.01;22.06
73974;BME280;62336;-26.094;27.994;2024-01-25T01:55:43;85210.80;;;33.64;21.72
73974;BME280;62336;-26.094;27.994;2024-01-25T01:58:09;85207.06;;;33.97;21.40
73974;BME280;62336;-26.094;27.994;2024-01-25T02:00:34;85207.54;;;32.79;22.13
73974;BME280;62336;-26.094;27.994;2024-01-25T02:02:59;85209.81;;;32.84;22.07
73974;BME280;62336;-26.094;27.994;2024-01-25T02:05:24;85207.55;;;33.26;21.95
73974;BME280;62336;-26.094;27.994;2024-01-25T02:07:50;85206.62;;;33.45;21.61
73974;BME280;62336;-26.094;27.994;2024-01-25T02:10:15;85206.34;;;33.24;21.93
73974;BME280;62336;-26.094;27.994;2024-01-25T02:12:40;85204.53;;;33.28;21.76
73974;BME280;62336;-26.094;27.994;2024-01-25T02:15:06;85198.46;;;33.07;22.03
73974;BME280;62336;-26.094;27.994;2024-01-25T02:17:31;85193.42;;;33.34;22.10
73974;BME280;62336;-26.094;27.994;2024-01-25T02:19:58;85191.75;;;33.31;21.89
73974;BME280;62336;-26.094;27.994;2024-01-25T02:22:23;85190.75;;;33.75;21.37
73974;BME280;62336;-26.094;27.994;2024-01-25T02:24:48;85188.82;;;34.24;21.36
73974;BME280;62336;-26.094;27.994;2024-01-25T02:27:13;85191.75;;;33.47;21.84
73974;BME280;62336;-26.094;27.994;2024-01-25T02:29:38;85191.38;;;33.98;21.40
73974;BME280;62336;-26.094;27.994;2024-01-25T02:32:04;85190.19;;;33.64;21.50
73974;BME280;62336;-26.094;27.994;2024-01-25T02:34:29;85197.63;;;33.01;22.16
73974;BME280;62336;-26.094;27.994;2024-01-25T02:36:56;85197.64;;;32.72;22.49
73974;BME280;62336;-26.094;27.994;2024-01-25T02:39:20;85198.40;;;33.96;21.54
73974;BME280;62336;-26.094;27.994;2024-01-25T02:41:46;85199.11;;;32.46;22.60
73974;BME280;62336;-26.094;27.994;2024-01-25T02:44:15;85202.16;;;31.17;23.68
73974;BME280;62336;-26.094;27.994;2024-01-25T02:46:37;85206.54;;;31.90;23.15
73974;BME280;62336;-26.094;27.994;2024-01-25T02:49:02;85211.18;;;33.02;22.14
73974;BME280;62336;-26.094;27.994;2024-01-25T02:51:28;85218.51;;;33.47;21.79
73974;BME280;62336;-26.094;27.994;2024-01-25T02:53:54;85218.96;;;32.77;22.18
73974;BME280;62336;-26.094;27.994;2024-01-25T02:56:19;85224.09;;;31.68;22.89
73974;BME280;62336;-26.094;27.994;2024-01-25T02:58:45;85227.04;;;32.47;22.62
73974;BME280;62336;-26.094;27.994;2024-01-25T03:01:10;85227.51;;;33.04;22.11
73974;BME280;62336;-26.094;27.994;2024-01-25T03:03:37;85230.20;;;32.35;22.53
73974;BME280;62336;-26.094;27.994;2024-01-25T03:06:03;85231.04;;;32.74;22.36
73974;BME280;62336;-26.094;27.994;2024-01-25T03:08:27;85233.83;;;33.25;22.10
73974;BME280;62336;-26.094;27.994;2024-01-25T03:10:52;85231.09;;;33.13;22.16
73974;BME280;62336;-26.094;27.994;2024-01-25T03:13:17;85229.90;;;31.86;22.94
73974;BME280;62336;-26.094;27.994;2024-01-25T03:15:43;85232.97;;;32.08;22.94
73974;BME280;62336;-26.094;27.994;2024-01-25T03:18:08;85237.58;;;31.81;22.92
73974;BME280;62336;-26.094;27.994;2024-01-25T03:20:34;85239.92;;;32.84;22.02
73974;BME280;62336;-26.094;27.994;2024-01-25T03:22:59;85239.07;;;33.04;22.03
73974;BME280;62336;-26.094;27.994;2024-01-25T03:25:24;85244.43;;;31.81;22.56
73974;BME280;62336;-26.094;27.994;2024-01-25T03:27:50;85246.26;;;32.15;22.82
73974;BME280;62336;-26.094;27.994;2024-01-25T03:30:15;85246.76;;;32.98;22.15
73974;BME280;62336;-26.094;27.994;2024-01-25T03:32:40;85253.26;;;32.03;22.94
73974;BME280;62336;-26.094;27.994;2024-01-25T03:35:06;85254.28;;;31.42;23.36
73974;BME280;62336;-26.094;27.994;2024-01-25T03:37:31;85252.13;;;31.85;22.98
73974;BME280;62336;-26.094;27.994;2024-01-25T03:39:57;85252.59;;;32.51;22.57
73974;BME280;62336;-26.094;27.994;2024-01-25T03:42:22;85254.30;;;33.04;22.27
73974;BME280;62336;-26.094;27.994;2024-01-25T03:44:47;85255.45;;;33.28;22.05
73974;BME280;62336;-26.094;27.994;2024-01-25T03:47:12;85253.42;;;33.35;21.91
73974;BME280;62336;-26.094;27.994;2024-01-25T03:49:38;85253.62;;;33.09;22.07
73974;BME280;62336;-26.094;27.994;2024-01-25T03:52:04;85257.71;;;32.75;22.28
73974;BME280;62336;-26.094;27.994;2024-01-25T03:54:29;85258.39;;;32.75;22.06
73974;BME280;62336;-26.094;27.994;2024-01-25T03:56:55;85261.20;;;33.68;21.49
73974;BME280;62336;-26.094;27.994;2024-01-25T03:59:20;85263.43;;;33.84;21.63
73974;BME280;62336;-26.094;27.994;2024-01-25T04:01:47;85263.91;;;33.47;21.64
73974;BME280;62336;-26.094;27.994;2024-01-25T04:04:11;85268.12;;;33.46;21.43
73974;BME280;62336;-26.094;27.994;2024-01-25T04:06:40;85274.41;;;33.47;21.60
73974;BME280;62336;-26.094;27.994;2024-01-25T04:09:03;85281.68;;;32.18;22.51
73974;BME280;62336;-26.094;27.994;2024-01-25T04:11:28;85281.18;;;33.31;21.75
73974;BME280;62336;-26.094;27.994;2024-01-25T04:13:53;85287.43;;;32.90;22.36
73974;BME280;62336;-26.094;27.994;2024-01-25T04:16:18;85291.66;;;32.09;22.68
73974;BME280;62336;-26.094;27.994;2024-01-25T04:18:44;85294.80;;;32.30;22.72
73974;BME280;62336;-26.094;27.994;2024-01-25T04:21:09;85296.94;;;32.10;22.74
73974;BME280;62336;-26.094;27.994;2024-01-25T04:23:35;85295.28;;;33.27;22.00
73974;BME280;62336;-26.094;27.994;2024-01-25T04:26:00;85300.27;;;33.20;21.79
73974;BME280;62336;-26.094;27.994;2024-01-25T04:28:25;85301.02;;;33.53;21.73
73974;BME280;62336;-26.094;27.994;2024-01-25T04:30:50;85304.35;;;33.40;21.94
73974;BME280;62336;-26.094;27.994;2024-01-25T04:33:16;85307.46;;;33.26;21.77
73974;BME280;62336;-26.094;27.994;2024-01-25T04:35:41;85308.40;;;33.60;21.48
73974;BME280;62336;-26.094;27.994;2024-01-25T04:38:06;85310.93;;;33.29;21.85
73974;BME280;62336;-26.094;27.994;2024-01-25T04:40:32;85312.48;;;33.25;21.87
73974;BME280;62336;-26.094;27.994;2024-01-25T04:42:57;85315.95;;;32.74;21.94
73974;BME280;62336;-26.094;27.994;2024-01-25T04:45:23;85316.56;;;32.92;21.86
73974;BME280;62336;-26.094;27.994;2024-01-25T04:47:48;85318.69;;;32.70;22.24
73974;BME280;62336;-26.094;27.994;2024-01-25T04:50:13;85318.77;;;32.22;22.61
73974;BME280;62336;-26.094;27.994;2024-01-25T04:52:38;85314.83;;;31.84;23.00
73974;BME280;62336;-26.094;27.994;2024-01-25T04:55:04;85314.42;;;33.05;22.23
73974;BME280;62336;-26.094;27.994;2024-01-25T04:57:29;85314.91;;;32.72;22.26
73974;BME280;62336;-26.094;27.994;2024-01-25T04:59:55;85319.44;;;32.98;21.82
73974;BME280;62336;-26.094;27.994;2024-01-25T05:02:21;85321.29;;;32.31;22.28
73974;BME280;62336;-26.094;27.994;2024-01-25T05:04:47;85316.38;;;32.54;22.55
73974;BME280;62336;-26.094;27.994;2024-01-25T05:07:12;85314.95;;;32.67;22.32
73974;BME280;62336;-26.094;27.994;2024-01-25T05:09:38;85311.68;;;32.70;22.47
73974;BME280;62336;-26.094;27.994;2024-01-25T05:12:03;85312.64;;;33.30;21.67
73974;BME280;62336;-26.094;27.994;2024-01-25T05:14:28;85312.43;;;33.00;21.88
73974;BME280;62336;-26.094;27.994;2024-01-25T05:16:54;85318.39;;;33.16;22.03
73974;BME280;62336;-26.094;27.994;2024-01-25T05:19:19;85323.41;;;32.31;22.36
73974;BME280;62336;-26.094;27.994;2024-01-25T05:21:45;85321.65;;;32.47;22.11
73974;BME280;62336;-26.094;27.994;2024-01-25T05:24:10;85324.32;;;33.31;21.81
73974;BME280;62336;-26.094;27.994;2024-01-25T05:26:36;85324.48;;;32.47;22.19
73974;BME280;62336;-26.094;27.994;2024-01-25T05:29:00;85329.81;;;32.97;22.46
73974;BME280;62336;-26.094;27.994;2024-01-25T05:31:26;85325.85;;;32.93;21.84
73974;BME280;62336;-26.094;27.994;2024-01-25T05:33:51;85324.06;;;33.17;21.66
73974;BME280;62336;-26.094;27.994;2024-01-25T05:36:17;85319.96;;;33.43;21.35
73974;BME280;62336;-26.094;27.994;2024-01-25T05:38:42;85322.82;;;33.08;21.38
73974;BME280;62336;-26.094;27.994;2024-01-25T05:41:07;85324.44;;;33.15;21.49
73974;BME280;62336;-26.094;27.994;2024-01-25T05:43:33;85324.27;;;33.83;21.22
73974;BME280;62336;-26.094;27.994;2024-01-25T05:45:59;85331.87;;;34.68;20.81
73974;BME280;62336;-26.094;27.994;2024-01-25T05:48:24;85331.34;;;34.24;20.70
73974;BME280;62336;-26.094;27.994;2024-01-25T05:50:50;85330.92;;;33.97;21.04
73974;BME280;62336;-26.094;27.994;2024-01-25T05:53:15;85326.63;;;33.48;21.23
73974;BME280;62336;-26.094;27.994;2024-01-25T05:55:40;85329.32;;;34.49;20.74
73974;BME280;62336;-26.094;27.994;2024-01-25T05:58:06;85329.79;;;34.00;21.07
73974;BME280;62336;-26.094;27.994;2024-01-25T06:00:31;85326.12;;;33.36;21.22
73974;BME280;62336;-26.094;27.994;2024-01-25T06:02:56;85320.46;;;33.24;21.60
73974;BME280;62336;-26.094;27.994;2024-01-25T06:05:21;85321.99;;;33.55;21.19
73974;BME280;62336;-26.094;27.994;2024-01-25T06:07:47;85323.81;;;34.03;21.09
73974;BME280;62336;-26.094;27.994;2024-01-25T06:10:13;85322.87;;;33.51;21.15
73974;BME280;62336;-26.094;27.994;2024-01-25T06:12:38;85322.95;;;34.12;20.79
73974;BME280;62336;-26.094;27.994;2024-01-25T06:15:05;85318.32;;;34.02;20.91
73974;BME280;62336;-26.094;27.994;2024-01-25T06:17:31;85312.78;;;34.41;20.67
73974;BME280;62336;-26.094;27.994;2024-01-25T06:19:55;85314.52;;;34.12;21.02
73974;BME280;62336;-26.094;27.994;2024-01-25T06:22:21;85309.86;;;33.93;20.72
73974;BME280;62336;-26.094;27.994;2024-01-25T06:24:47;85315.33;;;34.05;20.56
73974;BME280;62336;-26.094;27.994;2024-01-25T06:27:12;85319.22;;;34.53;20.54
73974;BME280;62336;-26.094;27.994;2024-01-25T06:29:39;85321.87;;;34.74;20.64
73974;BME280;62336;-26.094;27.994;2024-01-25T06:32:05;85321.80;;;34.89;20.12
73974;BME280;62336;-26.094;27.994;2024-01-25T06:34:30;85323.12;;;34.38;20.47
73974;BME280;62336;-26.094;27.994;2024-01-25T06:36:55;85324.79;;;34.11;20.60
73974;BME280;62336;-26.094;27.994;2024-01-25T06:39:20;85321.96;;;34.84;20.32
73974;BME280;62336;-26.094;27.994;2024-01-25T06:41:46;85321.75;;;34.55;20.54
73974;BME280;62336;-26.094;27.994;2024-01-25T06:44:12;85316.20;;;34.69;20.25
73974;BME280;62336;-26.094;27.994;2024-01-25T06:46:38;85312.76;;;34.91;20.03
73974;BME280;62336;-26.094;27.994;2024-01-25T06:49:03;85314.96;;;35.05;20.13
73974;BME280;62336;-26.094;27.994;2024-01-25T06:51:28;85313.94;;;35.14;20.14
73974;BME280;62336;-26.094;27.994;2024-01-25T06:53:53;85309.08;;;34.74;20.12
73974;BME280;62336;-26.094;27.994;2024-01-25T06:56:19;85306.40;;;34.93;20.13
73974;BME280;62336;-26.094;27.994;2024-01-25T06:58:45;85310.62;;;35.23;19.96
73974;BME280;62336;-26.094;27.994;2024-01-25T07:01:10;85308.32;;;35.19;19.68
73974;BME280;62336;-26.094;27.994;2024-01-25T07:03:36;85304.32;;;35.22;19.99
73974;BME280;62336;-26.094;27.994;2024-01-25T07:06:01;85309.54;;;35.60;19.46
73974;BME280;62336;-26.094;27.994;2024-01-25T07:08:27;85310.11;;;35.52;19.51
73974;BME280;62336;-26.094;27.994;2024-01-25T07:10:52;85307.66;;;35.88;19.48
73974;BME280;62336;-26.094;27.994;2024-01-25T07:13:18;85302.63;;;35.96;19.21
73974;BME280;62336;-26.094;27.994;2024-01-25T07:15:43;85298.67;;;35.60;19.49
73974;BME280;62336;-26.094;27.994;2024-01-25T07:18:08;85297.49;;;35.78;19.50
73974;BME280;62336;-26.094;27.994;2024-01-25T07:20:35;85294.26;;;36.26;19.39
73974;BME280;62336;-26.094;27.994;2024-01-25T07:23:00;85294.53;;;36.13;19.14
73974;BME280;62336;-26.094;27.994;2024-01-25T07:25:25;85298.91;;;35.66;19.73
73974;BME280;62336;-26.094;27.994;2024-01-25T07:27:51;85291.88;;;36.10;19.16
73974;BME280;62336;-26.094;27.994;2024-01-25T07:30:16;85297.49;;;36.73;18.91
73974;BME280;62336;-26.094;27.994;2024-01-25T07:32:41;85298.89;;;36.01;19.61
73974;BME280;62336;-26.094;27.994;2024-01-25T07:35:07;85297.61;;;35.29;19.70
73974;BME280;62336;-26.094;27.994;2024-01-25T07:37:32;85300.89;;;35.78;19.19
73974;BME280;62336;-26.094;27.994;2024-01-25T07:39:58;85299.68;;;36.06;19.61
73974;BME280;62336;-26.094;27.994;2024-01-25T07:42:24;85294.11;;;36.10;19.35
73974;BME280;62336;-26.094;27.994;2024-01-25T07:44:49;85299.77;;;35.75;19.56
73974;BME280;62336;-26.094;27.994;2024-01-25T07:47:15;85298.62;;;36.14;20.00
73974;BME280;62336;-26.094;27.994;2024-01-25T07:49:41;85302.27;;;36.06;19.61
73974;BME280;62336;-26.094;27.994;2024-01-25T07:52:05;85299.44;;;36.43;19.26
73974;BME280;62336;-26.094;27.994;2024-01-25T07:54:30;85296.49;;;36.26;19.09
73974;BME280;62336;-26.094;27.994;2024-01-25T07:56:57;85293.85;;;35.35;20.00
73974;BME280;62336;-26.094;27.994;2024-01-25T07:59:25;85293.94;;;35.54;20.02
73974;BME280;62336;-26.094;27.994;2024-01-25T08:01:47;85290.66;;;35.45;19.78
73974;BME280;62336;-26.094;27.994;2024-01-25T08:04:13;85290.96;;;35.82;19.84
73974;BME280;62336;-26.094;27.994;2024-01-25T08:06:38;85287.78;;;35.88;19.60
73974;BME280;62336;-26.094;27.994;2024-01-25T08:09:04;85284.09;;;36.09;19.41
73974;BME280;62336;-26.094;27.994;2024-01-25T08:11:30;85284.43;;;36.58;19.12
73974;BME280;62336;-26.094;27.994;2024-01-25T08:13:54;85279.72;;;36.53;19.26
73974;BME280;62336;-26.094;27.994;2024-01-25T08:16:20;85283.29;;;36.85;18.87
73974;BME280;62336;-26.094;27.994;2024-01-25T08:18:56;85277.98;;;36.92;18.61
73974;BME280;62336;-26.094;27.994;2024-01-25T08:21:12;85276.43;;;37.19;18.79
73974;BME280;62336;-26.094;27.994;2024-01-25T08:23:38;85276.06;;;37.11;18.60
73974;BME280;62336;-26.094;27.994;2024-01-25T08:26:03;85275.85;;;37.28;18.45
73974;BME280;62336;-26.094;27.994;2024-01-25T08:28:29;85267.60;;;36.81;18.79
73974;BME280;62336;-26.094;27.994;2024-01-25T08:30:54;85265.69;;;37.70;18.71
73974;BME280;62336;-26.094;27.994;2024-01-25T08:33:19;85263.77;;;37.11;18.89
73974;BME280;62336;-26.094;27.994;2024-01-25T08:35:44;85263.17;;;37.12;18.66
73974;BME280;62336;-26.094;27.994;2024-01-25T08:38:10;85262.40;;;37.83;18.46
73974;BME280;62336;-26.094;27.994;2024-01-25T08:40:37;85269.24;;;37.06;19.01
73974;BME280;62336;-26.094;27.994;2024-01-25T08:43:01;85268.51;;;37.69;18.60
73974;BME280;62336;-26.094;27.994;2024-01-25T08:45:26;85269.98;;;36.89;19.03
73974;BME280;62336;-26.094;27.994;2024-01-25T08:47:52;85267.80;;;37.10;18.87
73974;BME280;62336;-26.094;27.994;2024-01-25T08:50:17;85257.32;;;36.81;18.63
73974;BME280;62336;-26.094;27.994;2024-01-25T08:52:43;85252.98;;;37.36;18.64
73974;BME280;62336;-26.094;27.994;2024-01-25T08:55:09;85251.73;;;37.35;18.81
73974;BME280;62336;-26.094;27.994;2024-01-25T08:57:34;85252.55;;;37.83;18.48
73974;BME280;62336;-26.094;27.994;2024-01-25T09:00:00;85256.42;;;38.09;18.61
73974;BME280;62336;-26.094;27.994;2024-01-25T09:02:25;85251.45;;;37.66;18.55
73974;BME280;62336;-26.094;27.994;2024-01-25T09:04:51;85252.28;;;37.56;18.91
73974;BME280;62336;-26.094;27.994;2024-01-25T09:07:17;85243.24;;;36.95;19.09
73974;BME280;62336;-26.094;27.994;2024-01-25T09:09:42;85240.98;;;37.01;19.15
73974;BME280;62336;-26.094;27.994;2024-01-25T09:12:08;85237.37;;;37.45;18.55
73974;BME280;62336;-26.094;27.994;2024-01-25T09:14:33;85238.06;;;38.04;18.31
73974;BME280;62336;-26.094;27.994;2024-01-25T09:16:58;85237.38;;;38.27;18.25
73974;BME280;62336;-26.094;27.994;2024-01-25T09:19:23;85234.22;;;38.68;17.83
73974;BME280;62336;-26.094;27.994;2024-01-25T09:21:49;85231.25;;;37.96;18.28
73974;BME280;62336;-26.094;27.994;2024-01-25T09:24:14;85229.73;;;38.07;17.83
73974;BME280;62336;-26.094;27.994;2024-01-25T09:26:40;85226.53;;;38.09;17.98
73974;BME280;62336;-26.094;27.994;2024-01-25T09:29:05;85220.90;;;38.27;18.16
73974;BME280;62336;-26.094;27.994;2024-01-25T09:31:31;85219.08;;;37.53;18.67
73974;BME280;62336;-26.094;27.994;2024-01-25T09:33:56;85221.96;;;37.56;18.64
73974;BME280;62336;-26.094;27.994;2024-01-25T09:36:22;85219.84;;;37.56;18.49
73974;BME280;62336;-26.094;27.994;2024-01-25T09:38:47;85218.41;;;37.80;18.47
73974;BME280;62336;-26.094;27.994;2024-01-25T09:41:12;85213.39;;;38.31;18.17
73974;BME280;62336;-26.094;27.994;2024-01-25T09:43:38;85213.05;;;38.90;17.65
73974;BME280;62336;-26.094;27.994;2024-01-25T09:46:03;85214.52;;;39.49;17.12
73974;BME280;62336;-26.094;27.994;2024-01-25T09:48:29;85210.50;;;38.47;17.74
73974;BME280;62336;-26.094;27.994;2024-01-25T09:50:56;85201.54;;;38.23;17.65
73974;BME280;62336;-26.094;27.994;2024-01-25T09:53:22;85210.13;;;39.08;17.79
73974;BME280;62336;-26.094;27.994;2024-01-25T09:55:46;85194.53;;;38.59;17.37
73974;BME280;62336;-26.094;27.994;2024-01-25T09:58:10;85193.13;;;38.79;17.61
73974;BME280;62336;-26.094;27.994;2024-01-25T10:00:36;85191.51;;;38.73;17.83
73974;BME280;62336;-26.094;27.994;2024-01-25T10:03:01;85189.12;;;38.79;18.53
73974;BME280;62336;-26.094;27.994;2024-01-25T10:05:26;85183.69;;;39.13;17.41
73974;BME280;62336;-26.094;27.994;2024-01-25T10:07:51;85178.01;;;39.49;17.21
73974;BME280;62336;-26.094;27.994;2024-01-25T10:10:16;85175.25;;;39.47;17.21
73974;BME280;62336;-26.094;27.994;2024-01-25T10:12:43;85181.08;;;40.10;16.84
73974;BME280;62336;-26.094;27.994;2024-01-25T10:15:08;85177.71;;;38.99;17.28
73974;BME280;62336;-26.094;27.994;2024-01-25T10:17:32;85174.59;;;39.56;16.95
73974;BME280;62336;-26.094;27.994;2024-01-25T10:19:57;85174.24;;;39.15;16.79
73974;BME280;62336;-26.094;27.994;2024-01-25T10:22:22;85174.21;;;39.87;16.86
73974;BME280;62336;-26.094;27.994;2024-01-25T10:24:48;85172.43;;;39.40;17.14
73974;BME280;62336;-26.094;27.994;2024-01-25T10:27:13;85167.77;;;39.21;17.05
73974;BME280;62336;-26.094;27.994;2024-01-25T10:29:39;85165.53;;;39.38;17.52
73974;BME280;62336;-26.094;27.994;2024-01-25T10:32:04;85164.47;;;39.64;17.39
73974;BME280;62336;-26.094;27.994;2024-01-25T10:34:36;85152.12;;;39.27;16.92
73974;BME280;62336;-26.094;27.994;2024-01-25T10:36:56;85155.21;;;39.89;17.44
73974;BME280;62336;-26.094;27.994;2024-01-25T10:39:21;85145.85;;;39.84;16.49
73974;BME280;62336;-26.094;27.994;2024-01-25T10:41:46;85136.43;;;39.52;16.72
73974;BME280;62336;-26.094;27.994;2024-01-25T10:44:12;85135.42;;;39.55;16.81
73974;BME280;62336;-26.094;27.994;2024-01-25T10:46:38;85131.10;;;39.63;16.34
73974;BME280;62336;-26.094;27.994;2024-01-25T10:49:02;85127.99;;;39.94;16.44
73974;BME280;62336;-26.094;27.994;2024-01-25T10:51:27;85124.02;;;39.84;16.39
73974;BME280;62336;-26.094;27.994;2024-01-25T10:53:53;85133.58;;;40.44;16.20
73974;BME280;62336;-26.094;27.994;2024-01-25T10:56:18;85127.01;;;40.43;15.91
73974;BME280;62336;-26.094;27.994;2024-01-25T10:58:44;85125.00;;;39.94;16.32
73974;BME280;62336;-26.094;27.994;2024-01-25T11:01:10;85117.73;;;39.97;16.56
73974;BME280;62336;-26.094;27.994;2024-01-25T11:03:35;85115.07;;;40.40;16.08
73974;BME280;62336;-26.094;27.994;2024-01-25T11:06:07;85113.13;;;40.14;15.83
73974;BME280;62336;-26.094;27.994;2024-01-25T11:08:25;85109.02;;;40.27;15.55
73974;BME280;62336;-26.094;27.994;2024-01-25T11:10:51;85105.03;;;39.98;15.72
73974;BME280;62336;-26.094;27.994;2024-01-25T11:13:16;85100.76;;;39.98;15.90
73974;BME280;62336;-26.094;27.994;2024-01-25T11:15:41;85103.28;;;39.88;16.54
73974;BME280;62336;-26.094;27.994;2024-01-25T11:18:08;85104.41;;;40.00;16.11
73974;BME280;62336;-26.094;27.994;2024-01-25T11:20:33;85112.13;;;39.74;16.41
73974;BME280;62336;-26.094;27.994;2024-01-25T11:22:58;85107.26;;;39.52;16.23
73974;BME280;62336;-26.094;27.994;2024-01-25T11:25:23;85100.18;;;39.37;16.50
73974;BME280;62336;-26.094;27.994;2024-01-25T11:27:49;85092.28;;;39.29;16.53
73974;BME280;62336;-26.094;27.994;2024-01-25T11:30:14;85087.16;;;40.05;16.43
73974;BME280;62336;-26.094;27.994;2024-01-25T11:32:39;85085.91;;;40.16;16.56
73974;BME280;62336;-26.094;27.994;2024-01-25T11:35:05;85077.73;;;40.69;15.79
73974;BME280;62336;-26.094;27.994;2024-01-25T11:37:30;85075.89;;;40.63;16.02
73974;BME280;62336;-26.094;27.994;2024-01-25T11:39:55;85079.57;;;39.91;16.23
73974;BME280;62336;-26.094;27.994;2024-01-25T11:42:21;85074.88;;;39.78;16.19
73974;BME280;62336;-26.094;27.994;2024-01-25T11:44:47;85066.70;;;40.80;15.97
73974;BME280;62336;-26.094;27.994;2024-01-25T11:47:12;85069.89;;;40.33;16.52
73974;BME280;62336;-26.094;27.994;2024-01-25T11:49:39;85069.70;;;39.77;16.10
73974;BME280;62336;-26.094;27.994;2024-01-25T11:52:02;85067.34;;;39.64;16.34
73974;BME280;62336;-26.094;27.994;2024-01-25T11:54:27;85064.71;;;39.75;15.92
73974;BME280;62336;-26.094;27.994;2024-01-25T11:56:54;85050.64;;;40.33;16.12
73974;BME280;62336;-26.094;27.994;2024-01-25T11:59:18;85042.95;;;40.34;16.00
73974;BME280;62336;-26.094;27.994;2024-01-25T12:01:44;85039.18;;;40.43;15.74
73974;BME280;62336;-26.094;27.994;2024-01-25T12:04:09;85044.37;;;40.85;15.69
73974;BME280;62336;-26.094;27.994;2024-01-25T12:06:35;85045.49;;;40.48;16.05
73974;BME280;62336;-26.094;27.994;2024-01-25T12:09:06;85039.81;;;40.44;15.45
73974;BME280;62336;-26.094;27.994;2024-01-25T12:11:26;85032.16;;;40.20;15.55
73974;BME280;62336;-26.094;27.994;2024-01-25T12:13:53;85029.03;;;40.67;15.56
73974;BME280;62336;-26.094;27.994;2024-01-25T12:16:17;85024.06;;;40.88;15.55
73974;BME280;62336;-26.094;27.994;2024-01-25T12:18:43;85016.53;;;40.82;15.52
73974;BME280;62336;-26.094;27.994;2024-01-25T12:21:08;85013.73;;;41.21;15.25
73974;BME280;62336;-26.094;27.994;2024-01-25T12:23:35;85016.12;;;40.83;15.63
73974;BME280;62336;-26.094;27.994;2024-01-25T12:26:01;85011.55;;;40.99;15.39
73974;BME280;62336;-26.094;27.994;2024-01-25T12:28:26;85006.52;;;40.28;15.87
73974;BME280;62336;-26.094;27.994;2024-01-25T12:30:50;84998.26;;;40.62;15.54